createdAt,value
2022-08-17T00:02:26.467Z,20.92
2022-08-17T00:04:55.482Z,20.90
2022-08-17T00:07:23.363Z,20.38
2022-08-17T00:09:50.786Z,21.58
2022-08-17T00:12:41.605Z,21.00
2022-08-17T00:15:10.647Z,21.10
2022-08-17T00:17:38.630Z,20.30
2022-08-17T00:20:07.209Z,20.60
2022-08-17T00:22:36.756Z,24.95
2022-08-17T00:25:08.784Z,21.33
2022-08-17T00:27:37.072Z,22.33
2022-08-17T00:30:10.129Z,23.50
2022-08-17T00:33:12.286Z,22.35
2022-08-17T00:35:34.335Z,21.98
2022-08-17T00:38:04.322Z,23.45
2022-08-17T00:40:40.611Z,24.95
2022-08-17T00:43:20.654Z,25.40
2022-08-17T00:45:49.053Z,22.42
2022-08-17T00:48:28.845Z,21.73
2022-08-17T00:51:17.562Z,25.05
2022-08-17T00:53:51.472Z,23.20
2022-08-17T00:56:24.801Z,23.33
2022-08-17T00:58:53.043Z,24.85
2022-08-17T01:01:21.513Z,23.80
2022-08-17T01:03:52.135Z,27.80
2022-08-17T01:06:20.495Z,30.52
2022-08-17T01:08:52.289Z,28.77
2022-08-17T01:11:26.587Z,25.35
2022-08-17T01:13:54.083Z,27.08
2022-08-17T01:16:40.099Z,27.27
2022-08-17T01:19:32.315Z,28.00
2022-08-17T01:22:11.358Z,26.75
2022-08-17T01:24:42.200Z,29.95
2022-08-17T01:27:10.809Z,31.70
2022-08-17T01:29:40.505Z,31.90
2022-08-17T01:32:08.871Z,28.45
2022-08-17T01:34:42.472Z,31.88
2022-08-17T01:37:12.753Z,31.05
2022-08-17T01:39:50.330Z,33.13
2022-08-17T01:42:37.431Z,33.33
2022-08-17T01:45:23.165Z,33.70
2022-08-17T01:47:51.731Z,31.38
2022-08-17T01:50:26.482Z,30.83
2022-08-17T01:52:57.723Z,33.20
2022-08-17T01:55:31.475Z,31.45
2022-08-17T01:57:59.549Z,33.70
2022-08-17T02:00:59.641Z,32.92
2022-08-17T02:03:21.979Z,35.75
2022-08-17T02:05:50.063Z,32.03
2022-08-17T02:08:19.926Z,32.70
2022-08-17T02:10:49.129Z,30.08
2022-08-17T02:13:17.154Z,35.47
2022-08-17T02:15:44.555Z,36.35
2022-08-17T02:18:14.906Z,37.05
2022-08-17T02:20:43.033Z,37.80
2022-08-17T02:23:12.040Z,34.72
2022-08-17T02:25:40.709Z,32.28
2022-08-17T02:28:08.252Z,32.53
2022-08-17T02:31:00.039Z,32.97
2022-08-17T02:33:23.681Z,31.45
2022-08-17T02:36:10.416Z,31.20
2022-08-17T02:38:38.575Z,32.28
2022-08-17T02:41:06.336Z,29.35
2022-08-17T02:43:33.859Z,32.53
2022-08-17T02:46:01.611Z,33.80
2022-08-17T02:48:31.139Z,33.28
2022-08-17T02:51:00.442Z,31.35
2022-08-17T02:53:29.765Z,34.03
2022-08-17T02:56:04.165Z,30.70
2022-08-17T02:58:35.430Z,30.73
2022-08-17T03:01:05.922Z,31.15
2022-08-17T03:03:34.048Z,30.55
2022-08-17T03:06:01.855Z,32.22
2022-08-17T03:08:29.839Z,29.05
2022-08-17T03:10:57.907Z,30.67
2022-08-17T03:13:27.738Z,30.67
2022-08-17T03:15:55.322Z,28.50
2022-08-17T03:18:24.638Z,27.90
2022-08-17T03:20:55.532Z,29.17
2022-08-17T03:23:23.958Z,30.55
2022-08-17T03:25:53.821Z,29.48
2022-08-17T03:28:22.727Z,29.42
2022-08-17T03:30:51.507Z,31.88
2022-08-17T03:33:20.185Z,32.38
2022-08-17T03:35:47.843Z,34.30
2022-08-17T03:38:17.332Z,34.67
2022-08-17T03:40:59.010Z,33.10
2022-08-17T03:43:32.088Z,34.60
2022-08-17T03:46:34.003Z,33.70
2022-08-17T03:49:26.049Z,35.03
2022-08-17T03:52:14.035Z,34.08
2022-08-17T03:55:00.883Z,33.83
2022-08-17T03:57:28.858Z,31.98
2022-08-17T03:59:56.360Z,31.63
2022-08-17T04:02:26.430Z,35.15
2022-08-17T04:04:54.625Z,34.47
2022-08-17T04:07:24.082Z,34.92
2022-08-17T04:09:51.785Z,36.00
2022-08-17T04:12:23.324Z,33.88
2022-08-17T04:14:53.401Z,32.35
2022-08-17T04:17:24.452Z,32.10
2022-08-17T04:19:52.168Z,29.55
2022-08-17T04:22:31.291Z,29.98
2022-08-17T04:25:14.862Z,30.95
2022-08-17T04:27:42.413Z,31.15
2022-08-17T04:30:10.593Z,30.85
2022-08-17T04:33:07.268Z,31.83
2022-08-17T04:35:41.258Z,31.25
2022-08-17T04:38:10.109Z,30.42
2022-08-17T04:40:56.643Z,29.52
2022-08-17T04:43:26.051Z,29.30
2022-08-17T04:45:57.365Z,27.70
2022-08-17T04:48:36.981Z,27.10
2022-08-17T04:51:13.411Z,26.90
2022-08-17T04:53:44.599Z,25.48
2022-08-17T04:56:17.029Z,23.23
2022-08-17T04:58:48.444Z,23.13
2022-08-17T05:01:23.599Z,23.80
2022-08-17T05:03:56.346Z,24.05
2022-08-17T05:06:24.130Z,23.98
2022-08-17T05:08:51.976Z,23.08
2022-08-17T05:11:19.431Z,21.85
2022-08-17T05:13:50.400Z,21.75
2022-08-17T05:16:19.059Z,22.67
2022-08-17T05:18:46.788Z,21.15
2022-08-17T05:21:15.032Z,21.35
2022-08-17T05:23:43.515Z,21.98
2022-08-17T05:26:26.495Z,21.20
2022-08-17T05:28:59.425Z,20.92
2022-08-17T05:31:28.439Z,21.45
2022-08-17T05:33:56.240Z,19.95
2022-08-17T05:36:43.660Z,20.95
2022-08-17T05:39:16.522Z,19.80
2022-08-17T05:41:46.872Z,20.17
2022-08-17T05:44:14.864Z,19.45
2022-08-17T05:46:44.358Z,17.90
2022-08-17T05:49:13.252Z,18.85
2022-08-17T05:51:56.121Z,18.45
2022-08-17T05:54:33.977Z,17.88
2022-08-17T05:57:29.180Z,18.05
2022-08-17T06:00:09.928Z,17.08
2022-08-17T06:03:02.339Z,16.98
2022-08-17T06:05:55.400Z,16.35
2022-08-17T06:08:41.350Z,15.93
2022-08-17T06:11:22.688Z,15.68
2022-08-17T06:14:25.721Z,14.55
2022-08-17T06:17:02.598Z,14.93
2022-08-17T06:19:56.478Z,15.15
2022-08-17T06:22:27.517Z,13.82
2022-08-17T06:25:01.371Z,14.10
2022-08-17T06:27:54.295Z,15.38
2022-08-17T06:30:27.571Z,13.95
2022-08-17T06:32:59.722Z,13.77
2022-08-17T06:35:38.993Z,13.90
2022-08-17T06:38:10.495Z,12.43
2022-08-17T06:41:26.191Z,13.07
2022-08-17T06:44:47.555Z,12.80
2022-08-17T06:47:41.439Z,12.77
2022-08-17T06:50:14.657Z,11.65
2022-08-17T06:52:54.480Z,12.25
2022-08-17T06:56:02.335Z,12.35
2022-08-17T06:58:31.620Z,11.52
2022-08-17T07:01:10.050Z,10.70
2022-08-17T07:03:56.565Z,11.25
2022-08-17T07:06:37.083Z,11.65
2022-08-17T07:09:33.865Z,11.07
2022-08-17T07:12:22.304Z,10.13
2022-08-17T07:14:53.636Z,10.45
2022-08-17T07:17:22.742Z,10.70
2022-08-17T07:20:15.092Z,10.43
2022-08-17T07:23:02.096Z,9.50
2022-08-17T07:25:30.925Z,9.65
2022-08-17T07:28:04.266Z,10.00
2022-08-17T07:30:47.293Z,9.50
2022-08-17T07:33:20.407Z,10.60
2022-08-17T07:35:50.214Z,10.05
2022-08-17T07:38:24.989Z,9.70
2022-08-17T07:40:57.897Z,8.90
2022-08-17T07:43:29.656Z,8.18
2022-08-17T07:46:25.328Z,8.10
2022-08-17T07:48:56.241Z,8.30
2022-08-17T07:51:36.607Z,8.20
2022-08-17T07:54:24.785Z,9.57
2022-08-17T07:57:15.581Z,9.98
2022-08-17T08:00:16.117Z,8.95
2022-08-17T08:02:46.304Z,9.38
2022-08-17T08:05:49.343Z,9.27
2022-08-17T08:08:25.335Z,10.30
2022-08-17T08:11:12.633Z,8.82
2022-08-17T08:13:43.973Z,9.55
2022-08-17T08:16:22.836Z,10.10
2022-08-17T08:18:56.726Z,9.93
2022-08-17T08:21:42.263Z,9.20
2022-08-17T08:24:31.445Z,9.00
2022-08-17T08:27:02.649Z,8.77
2022-08-17T08:29:48.961Z,9.13
2022-08-17T08:32:25.277Z,8.95
2022-08-17T08:35:06.044Z,9.80
2022-08-17T08:38:15.328Z,8.73
2022-08-17T08:40:54.858Z,8.32
2022-08-17T08:44:00.803Z,7.97
2022-08-17T08:46:36.094Z,8.20
2022-08-17T08:49:59.492Z,8.57
2022-08-17T08:52:44.246Z,9.02
2022-08-17T08:55:28.845Z,8.88
2022-08-17T08:58:06.297Z,9.65
2022-08-17T09:00:39.143Z,10.02
2022-08-17T09:03:51.504Z,8.65
2022-08-17T09:06:44.431Z,8.35
2022-08-17T09:09:27.738Z,8.95
2022-08-17T09:12:06.958Z,7.65
2022-08-17T09:14:46.501Z,7.13
2022-08-17T09:18:14.908Z,8.20
2022-08-17T09:21:18.166Z,7.53
2022-08-17T09:23:52.121Z,9.02
2022-08-17T09:26:30.655Z,8.68
2022-08-17T09:29:02.282Z,9.10
2022-08-17T09:31:47.029Z,8.53
2022-08-17T09:34:28.192Z,8.65
2022-08-17T09:37:38.109Z,7.90
2022-08-17T09:40:34.529Z,7.93
2022-08-17T09:43:16.550Z,8.52
2022-08-17T09:45:54.559Z,7.78
2022-08-17T09:48:28.521Z,7.90
2022-08-17T09:51:18.205Z,7.00
2022-08-17T09:53:45.906Z,7.25
2022-08-17T09:56:46.220Z,7.72
2022-08-17T09:59:38.357Z,7.40
2022-08-17T10:02:38.165Z,7.80
2022-08-17T10:05:13.748Z,7.35
2022-08-17T10:07:46.766Z,7.70
2022-08-17T10:10:26.635Z,7.85
2022-08-17T10:13:06.729Z,7.20
2022-08-17T10:16:00.776Z,7.40
2022-08-17T10:18:53.197Z,7.30
2022-08-17T10:21:40.294Z,7.20
2022-08-17T10:24:36.234Z,8.10
2022-08-17T10:27:09.662Z,7.70
2022-08-17T10:29:49.213Z,7.80
2022-08-17T10:32:32.425Z,8.48
2022-08-17T10:35:34.208Z,7.93
2022-08-17T10:38:21.553Z,7.32
2022-08-17T10:40:54.891Z,7.30
2022-08-17T10:44:37.528Z,7.55
2022-08-17T10:46:59.526Z,7.60
2022-08-17T10:49:34.197Z,7.90
2022-08-17T10:52:05.275Z,7.53
2022-08-17T10:54:42.045Z,8.20
2022-08-17T10:57:31.714Z,7.20
2022-08-17T11:00:00.863Z,7.50
2022-08-17T11:02:54.183Z,10.52
2022-08-17T11:05:43.793Z,8.00
2022-08-17T11:08:17.513Z,7.85
2022-08-17T11:11:12.162Z,8.02
2022-08-17T11:13:46.172Z,7.05
2022-08-17T11:16:38.681Z,7.35
2022-08-17T11:19:31.010Z,7.15
2022-08-17T11:22:16.155Z,7.10
2022-08-17T11:24:48.070Z,6.60
2022-08-17T11:27:28.246Z,7.05
2022-08-17T11:30:01.470Z,8.10
2022-08-17T11:32:54.354Z,7.35
2022-08-17T11:35:22.377Z,7.00
2022-08-17T11:38:16.108Z,7.40
2022-08-17T11:41:02.884Z,7.25
2022-08-17T11:43:33.176Z,7.28
2022-08-17T11:46:11.176Z,7.57
2022-08-17T11:49:22.013Z,7.93
2022-08-17T11:51:55.155Z,7.15
2022-08-17T11:54:35.552Z,7.55
2022-08-17T11:57:25.655Z,7.45
2022-08-17T12:00:00.650Z,6.97
2022-08-17T12:02:35.132Z,7.50
2022-08-17T12:05:14.881Z,7.85
2022-08-17T12:07:45.433Z,7.55
2022-08-17T12:10:16.107Z,8.13
2022-08-17T12:12:45.515Z,7.78
2022-08-17T12:15:18.352Z,7.60
2022-08-17T12:17:53.854Z,7.72
2022-08-17T12:20:28.021Z,7.05
2022-08-17T12:23:05.065Z,7.72
2022-08-17T12:25:57.690Z,7.80
2022-08-17T12:28:36.800Z,8.00
2022-08-17T12:31:14.057Z,9.30
2022-08-17T12:33:46.067Z,8.75
2022-08-17T12:36:16.522Z,8.80
2022-08-17T12:38:51.696Z,8.52
2022-08-17T12:41:43.852Z,8.63
2022-08-17T12:44:21.739Z,8.43
2022-08-17T12:46:58.925Z,9.13
2022-08-17T12:49:28.302Z,8.55
2022-08-17T12:52:24.796Z,9.45
2022-08-17T12:55:02.051Z,8.32
2022-08-17T12:57:35.423Z,7.68
2022-08-17T13:00:17.872Z,8.88
2022-08-17T13:02:47.714Z,8.68
2022-08-17T13:05:39.628Z,7.82
2022-08-17T13:08:20.652Z,8.23
2022-08-17T13:11:04.229Z,8.60
2022-08-17T13:13:35.615Z,8.27
2022-08-17T13:16:19.014Z,11.52
2022-08-17T13:18:49.550Z,7.82
2022-08-17T13:21:19.707Z,8.32
2022-08-17T13:23:56.440Z,8.30
2022-08-17T13:26:42.898Z,8.60
2022-08-17T13:29:31.864Z,8.50
2022-08-17T13:32:11.617Z,8.32
2022-08-17T13:35:15.463Z,7.82
2022-08-17T13:37:37.718Z,8.40
2022-08-17T13:40:11.270Z,8.60
2022-08-17T13:42:54.213Z,8.13
2022-08-17T13:48:14.627Z,8.18
2022-08-17T13:51:01.826Z,8.70
2022-08-17T13:53:40.129Z,8.95
2022-08-17T13:56:38.056Z,8.52
2022-08-17T13:59:07.397Z,9.18
2022-08-17T14:01:42.334Z,9.82
2022-08-17T14:04:16.757Z,9.35
2022-08-17T14:06:54.151Z,9.30
2022-08-17T14:09:25.029Z,9.00
2022-08-17T14:11:54.302Z,9.07
2022-08-17T14:14:23.418Z,9.98
2022-08-17T14:16:52.237Z,8.82
2022-08-17T14:19:22.103Z,8.50
2022-08-17T14:21:49.704Z,9.07
2022-08-17T14:24:24.997Z,7.90
2022-08-17T14:26:55.703Z,8.30
2022-08-17T14:29:25.443Z,8.25
2022-08-17T14:31:54.415Z,12.48
2022-08-17T14:34:23.561Z,8.80
2022-08-17T14:36:52.129Z,7.82
2022-08-17T14:39:20.448Z,8.00
2022-08-17T14:41:47.928Z,8.57
2022-08-17T14:44:15.804Z,8.90
2022-08-17T14:46:44.678Z,8.68
2022-08-17T14:49:13.326Z,8.30
2022-08-17T14:51:44.242Z,8.30
2022-08-17T14:54:33.354Z,7.75
2022-08-17T14:57:23.341Z,8.73
2022-08-17T14:59:54.920Z,8.50
2022-08-17T15:02:29.341Z,8.40
2022-08-17T15:05:05.614Z,9.40
2022-08-17T15:07:33.177Z,9.20
2022-08-17T15:10:02.475Z,8.52
2022-08-17T15:12:33.799Z,8.52
2022-08-17T15:15:05.199Z,8.27
2022-08-17T15:17:44.644Z,8.70
2022-08-17T15:20:16.661Z,8.10
2022-08-17T15:22:45.270Z,8.57
2022-08-17T15:25:13.355Z,8.57
2022-08-17T15:27:41.476Z,9.23
2022-08-17T15:30:10.374Z,7.85
2022-08-17T15:32:41.010Z,8.88
2022-08-17T15:35:18.931Z,9.35
2022-08-17T15:37:54.393Z,8.80
2022-08-17T15:40:22.019Z,8.32
2022-08-17T15:42:49.230Z,8.55
2022-08-17T15:45:22.704Z,8.90
2022-08-17T15:47:50.701Z,8.55
2022-08-17T15:50:18.380Z,9.40
2022-08-17T15:52:47.717Z,8.52
2022-08-17T15:55:17.172Z,9.25
2022-08-17T15:57:46.195Z,8.77
2022-08-17T16:00:14.083Z,9.15
2022-08-17T16:03:46.107Z,9.80
2022-08-17T16:05:31.246Z,9.38
2022-08-17T16:07:59.977Z,9.57
2022-08-17T16:10:35.151Z,10.38
2022-08-17T16:13:04.627Z,9.63
2022-08-17T16:15:32.330Z,9.93
2022-08-17T16:17:59.809Z,9.90
2022-08-17T16:20:27.671Z,9.63
2022-08-17T16:22:55.483Z,10.18
2022-08-17T16:25:51.913Z,10.02
2022-08-17T16:28:17.964Z,9.82
2022-08-17T16:30:45.709Z,10.32
2022-08-17T16:33:13.721Z,9.73
2022-08-17T16:35:42.180Z,10.02
2022-08-17T16:38:09.785Z,9.82
2022-08-17T16:40:37.398Z,9.27
2022-08-17T16:43:10.622Z,9.50
2022-08-17T16:45:40.724Z,10.63
2022-08-17T16:48:09.533Z,10.10
2022-08-17T16:50:37.401Z,10.23
2022-08-17T16:53:08.375Z,10.63
2022-08-17T16:55:36.402Z,10.27
2022-08-17T16:58:06.979Z,10.45
2022-08-17T17:00:34.938Z,10.27
2022-08-17T17:03:19.852Z,10.80
2022-08-17T17:06:07.228Z,11.15
2022-08-17T17:09:00.616Z,11.40
2022-08-17T17:16:33.030Z,10.95
2022-08-17T17:19:34.889Z,11.07
2022-08-17T17:22:22.368Z,11.05
2022-08-17T17:25:11.270Z,11.52
2022-08-17T17:27:59.029Z,12.10
2022-08-17T17:30:27.253Z,11.65
2022-08-17T17:32:59.806Z,11.90
2022-08-17T17:35:43.707Z,12.50
2022-08-17T17:38:17.109Z,12.65
2022-08-17T17:40:47.631Z,13.18
2022-08-17T17:43:38.289Z,13.00
2022-08-17T17:46:28.406Z,12.85
2022-08-17T17:48:57.963Z,14.02
2022-08-17T17:51:54.969Z,14.05
2022-08-17T17:54:37.858Z,13.05
2022-08-17T17:57:17.932Z,13.50
2022-08-17T17:59:45.597Z,13.38
2022-08-17T18:02:12.847Z,13.10
2022-08-17T18:04:50.063Z,14.02
2022-08-17T18:07:46.661Z,13.60
2022-08-17T18:10:55.919Z,13.63
2022-08-17T18:13:33.704Z,14.30
2022-08-17T18:16:02.596Z,14.48
2022-08-17T18:18:38.344Z,15.27
2022-08-17T18:21:16.612Z,15.05
2022-08-17T18:24:04.150Z,14.25
2022-08-17T18:26:39.491Z,16.17
2022-08-17T18:29:36.838Z,14.00
2022-08-17T18:32:24.921Z,15.05
2022-08-17T18:35:11.322Z,14.77
2022-08-17T18:37:46.185Z,15.80
2022-08-17T18:40:17.086Z,15.75
2022-08-17T18:43:05.155Z,15.65
2022-08-17T18:45:43.173Z,15.95
2022-08-17T18:48:29.313Z,15.75
2022-08-17T18:51:00.362Z,16.17
2022-08-17T18:53:33.381Z,16.48
2022-08-17T18:56:20.901Z,17.58
2022-08-17T18:59:04.597Z,17.00
2022-08-17T19:01:53.277Z,17.70
2022-08-17T19:04:34.126Z,16.30
2022-08-17T19:07:23.360Z,16.30
2022-08-17T19:10:01.819Z,16.95
2022-08-17T19:12:35.347Z,17.10
2022-08-17T19:15:03.229Z,17.38
2022-08-17T19:17:37.481Z,16.00
2022-08-17T19:20:15.471Z,18.00
2022-08-17T19:22:45.979Z,18.40
2022-08-17T19:25:18.334Z,19.40
2022-08-17T19:28:00.984Z,18.95
2022-08-17T19:30:30.828Z,17.73
2022-08-17T19:32:58.711Z,17.85
2022-08-17T19:35:36.059Z,19.50
2022-08-17T19:38:12.826Z,19.85
2022-08-17T19:40:54.964Z,18.67
2022-08-17T19:43:41.395Z,19.38
2022-08-17T19:46:30.418Z,19.30
2022-08-17T19:49:41.838Z,20.02
2022-08-17T19:52:48.140Z,19.25
2022-08-17T19:55:22.384Z,19.13
2022-08-17T19:57:55.877Z,19.42
2022-08-17T20:00:23.928Z,19.35
2022-08-17T20:03:16.393Z,18.35
2022-08-17T20:06:11.544Z,19.45
2022-08-17T20:08:40.119Z,20.30
2022-08-17T20:11:17.615Z,20.75
2022-08-17T20:14:09.550Z,19.70
2022-08-17T20:16:37.199Z,21.00
2022-08-17T20:19:19.639Z,22.23
2022-08-17T20:22:01.245Z,20.52
2022-08-17T20:24:37.583Z,21.63
2022-08-17T20:27:19.120Z,20.58
2022-08-17T20:30:11.970Z,22.08
2022-08-17T20:32:56.906Z,20.77
2022-08-17T20:35:32.664Z,20.92
2022-08-17T20:38:02.317Z,22.33
2022-08-17T20:40:39.195Z,22.58
2022-08-17T20:43:33.293Z,20.08
2022-08-17T20:46:18.500Z,22.20
2022-08-17T20:48:49.072Z,21.85
2022-08-17T20:51:39.692Z,21.40
2022-08-17T20:54:27.594Z,23.63
2022-08-17T20:56:57.910Z,22.77
2022-08-17T20:59:26.036Z,21.83
2022-08-17T21:02:12.390Z,23.08
2022-08-17T21:05:00.341Z,20.83
2022-08-17T21:07:42.792Z,22.67
2022-08-17T21:10:23.777Z,22.05
2022-08-17T21:13:13.397Z,22.98
2022-08-17T21:15:44.291Z,22.77
2022-08-17T21:18:18.220Z,23.02
2022-08-17T21:21:04.780Z,22.73
2022-08-17T21:23:32.089Z,21.75
2022-08-17T21:26:26.730Z,21.73
2022-08-17T21:29:29.586Z,22.55
2022-08-17T21:32:03.463Z,23.42
2022-08-17T21:34:33.284Z,25.17
2022-08-17T21:37:23.466Z,23.25
2022-08-17T21:39:58.176Z,23.00
2022-08-17T21:42:34.160Z,23.40
2022-08-17T21:45:18.682Z,23.58
2022-08-17T21:47:52.173Z,23.90
2022-08-17T21:50:23.475Z,23.13
2022-08-17T21:53:01.189Z,24.95
2022-08-17T21:55:30.379Z,25.02
2022-08-17T21:58:14.860Z,24.65
2022-08-17T22:00:46.331Z,23.75
2022-08-17T22:03:24.233Z,24.08
2022-08-17T22:05:51.736Z,24.58
2022-08-17T22:08:22.539Z,24.60
2022-08-17T22:10:51.861Z,24.05
2022-08-17T22:13:24.335Z,23.80
2022-08-17T22:16:28.990Z,24.02
2022-08-17T22:18:58.480Z,23.50
2022-08-17T22:21:26.850Z,23.95
2022-08-17T22:24:22.710Z,24.77
2022-08-17T22:27:11.082Z,25.15
2022-08-17T22:30:00.617Z,24.05
2022-08-17T22:32:48.417Z,26.27
2022-08-17T22:35:38.641Z,24.98
2022-08-17T22:38:25.110Z,24.95
2022-08-17T22:40:55.156Z,25.55
2022-08-17T22:43:28.684Z,26.42
2022-08-17T22:45:58.626Z,24.88
2022-08-17T22:48:29.064Z,26.15
2022-08-17T22:51:13.756Z,27.02
2022-08-17T22:54:10.418Z,27.30
2022-08-17T22:56:57.138Z,26.00
2022-08-17T22:59:45.777Z,27.63
2022-08-17T23:02:19.591Z,27.35
2022-08-17T23:04:53.331Z,29.27
2022-08-17T23:07:21.623Z,28.63
2022-08-17T23:09:49.587Z,28.25
2022-08-17T23:12:22.863Z,26.73
2022-08-17T23:15:00.915Z,28.42
2022-08-17T23:17:35.098Z,27.13
2022-08-17T23:20:08.580Z,28.75
2022-08-17T23:22:38.140Z,27.38
2022-08-17T23:25:32.086Z,29.38
2022-08-17T23:28:01.663Z,26.48
2022-08-17T23:30:31.691Z,27.83
2022-08-17T23:33:01.250Z,28.83
2022-08-17T23:35:39.167Z,28.75
2022-08-17T23:38:07.628Z,28.58
2022-08-17T23:40:35.094Z,29.65
2022-08-17T23:45:47.495Z,31.85
2022-08-17T23:48:15.006Z,29.30
2022-08-17T23:50:56.506Z,29.40
2022-08-17T23:53:26.036Z,27.35
2022-08-17T23:56:09.710Z,30.83
2022-08-17T23:58:42.773Z,30.15
